Time;durP1;ratioP1;P1;durP2;ratioP2;P2;SDS_P1;SDS_P2;PMS_P1;PMS_P2;Temp;Humidity;BMP_temperature;BMP_pressure;BME280_temperature;BME280_humidity;BME280_pressure;Samples;Min_cycle;Max_cycle;Signal;HPM_P1;HPM_P2
2021/04/09 00:02:10;;;;;;;19.20;13.00;;;5.30;99.90;;;;;;5059451;28;20057;-71
2021/04/09 00:04:36;;;;;;;17.88;12.70;;;5.30;99.90;;;;;;5069631;28;20460;-72
2021/04/09 00:07:01;;;;;;;21.92;14.35;;;5.30;99.90;;;;;;5071683;28;20090;-72
2021/04/09 00:09:27;;;;;;;19.48;13.57;;;5.20;99.90;;;;;;5070604;28;20032;-72
2021/04/09 00:11:54;;;;;;;32.00;14.60;;;5.20;99.90;;;;;;5071684;28;20070;-72
2021/04/09 00:14:19;;;;;;;21.55;13.50;;;5.20;99.90;;;;;;5070418;28;20048;-71
2021/04/09 00:16:45;;;;;;;26.00;13.27;;;5.20;99.90;;;;;;5070778;28;20056;-71
2021/04/09 00:19:17;;;;;;;27.58;13.18;;;5.20;99.90;;;;;;5071417;28;20547;-71
2021/04/09 00:21:46;;;;;;;21.35;13.98;;;5.20;99.90;;;;;;5064624;28;20025;-71
2021/04/09 00:24:12;;;;;;;21.83;13.55;;;5.20;99.90;;;;;;5070988;28;20077;-71
2021/04/09 00:26:39;;;;;;;18.27;13.48;;;5.20;99.90;;;;;;5071525;28;20028;-71
2021/04/09 00:29:04;;;;;;;19.10;12.93;;;5.30;99.90;;;;;;5071342;28;20477;-72
2021/04/09 00:31:31;;;;;;;20.85;13.85;;;5.20;99.90;;;;;;5070654;28;20060;-73
2021/04/09 00:33:57;;;;;;;18.67;13.50;;;5.30;99.90;;;;;;5071647;28;20033;-72
2021/04/09 00:36:22;;;;;;;20.45;13.73;;;5.20;99.90;;;;;;5071314;28;20391;-72
2021/04/09 00:38:48;;;;;;;21.08;15.18;;;5.30;99.90;;;;;;5070634;28;20079;-72
2021/04/09 00:41:14;;;;;;;20.05;12.85;;;5.30;99.90;;;;;;5071452;28;20056;-72
2021/04/09 00:43:40;;;;;;;17.98;12.98;;;5.30;99.90;;;;;;5071364;28;20025;-72
2021/04/09 00:46:07;;;;;;;20.80;13.90;;;5.30;99.90;;;;;;5070374;28;20032;-72
2021/04/09 00:48:32;;;;;;;17.88;13.45;;;5.30;99.90;;;;;;5071282;28;20039;-70
2021/04/09 00:50:58;;;;;;;18.38;13.45;;;5.30;99.90;;;;;;5071636;28;20020;-71
2021/04/09 00:53:26;;;;;;;23.58;14.60;;;5.40;99.90;;;;;;5075137;28;20062;-71
2021/04/09 00:55:52;;;;;;;22.75;13.65;;;5.40;99.90;;;;;;5061199;28;20428;-71
2021/04/09 00:58:18;;;;;;;18.48;13.00;;;5.30;99.90;;;;;;5074296;28;20426;-71
2021/04/09 01:00:43;;;;;;;24.00;14.40;;;5.40;99.90;;;;;;5075003;28;20468;-72
2021/04/09 01:03:09;;;;;;;28.15;13.95;;;5.40;99.90;;;;;;5074775;28;20098;-72
2021/04/09 01:05:35;;;;;;;19.88;14.48;;;5.40;99.90;;;;;;5074173;28;20063;-72
2021/04/09 01:08:02;;;;;;;24.35;14.18;;;5.40;99.90;;;;;;5074649;28;20028;-72
2021/04/09 01:10:29;;;;;;;21.35;13.98;;;5.40;99.90;;;;;;5074771;28;20028;-71
2021/04/09 01:12:55;;;;;;;19.80;13.25;;;5.40;99.90;;;;;;5074177;28;20028;-72
2021/04/09 01:15:21;;;;;;;19.80;12.98;;;5.30;99.90;;;;;;5074531;28;20468;-71
2021/04/09 01:18:00;;;;;;;24.15;14.77;;;5.40;99.90;;;;;;5074555;28;20416;-72
2021/04/09 01:20:56;;;;;;;22.52;12.90;;;5.30;99.90;;;;;;5074115;28;20024;-72
2021/04/09 01:23:42;;;;;;;22.73;13.70;;;5.30;99.90;;;;;;5074050;28;20016;-71
2021/04/09 01:26:39;;;;;;;24.27;13.48;;;5.30;99.90;;;;;;5074135;28;20017;-72
2021/04/09 01:29:13;;;;;;;15.90;12.35;;;5.20;99.90;;;;;;5054300;28;20534;-73
2021/04/09 01:32:00;;;;;;;23.98;13.45;;;5.20;99.90;;;;;;5057009;28;20073;-72
2021/04/09 01:34:31;;;;;;;17.67;12.20;;;5.20;99.90;;;;;;5073227;28;20030;-72
2021/04/09 01:37:04;;;;;;;16.50;12.32;;;5.20;99.90;;;;;;5074339;28;20024;-72
2021/04/09 01:39:39;;;;;;;23.67;12.57;;;5.20;99.90;;;;;;5074477;28;20496;-72
2021/04/09 01:42:09;;;;;;;17.80;11.82;;;5.20;99.90;;;;;;5073141;28;20024;-73
2021/04/09 01:44:37;;;;;;;18.27;12.32;;;5.20;99.90;;;;;;5074987;28;20099;-72
2021/04/09 01:47:05;;;;;;;20.38;11.90;;;5.20;99.90;;;;;;5074372;28;20037;-72
2021/04/09 01:49:33;;;;;;;16.70;11.30;;;5.20;99.90;;;;;;5073252;28;20063;-72
2021/04/09 01:52:01;;;;;;;23.50;13.48;;;5.20;99.90;;;;;;5074127;28;20032;-72
2021/04/09 01:54:29;;;;;;;17.13;11.82;;;5.10;99.90;;;;;;5073056;28;20024;-73
2021/04/09 01:56:55;;;;;;;24.30;13.68;;;5.10;99.90;;;;;;5073751;28;20069;-72
2021/04/09 01:59:23;;;;;;;21.67;12.48;;;5.10;99.90;;;;;;5073949;28;20099;-71
2021/04/09 02:01:50;;;;;;;19.85;11.70;;;5.10;99.90;;;;;;5072972;28;20381;-72
2021/04/09 02:04:20;;;;;;;18.50;11.75;;;5.10;99.90;;;;;;5073891;28;20023;-72
2021/04/09 02:06:48;;;;;;;17.33;11.80;;;5.00;99.90;;;;;;5062223;28;20075;-72
2021/04/09 02:09:15;;;;;;;20.52;11.60;;;5.10;99.90;;;;;;5071148;28;20020;-72
2021/04/09 02:11:42;;;;;;;21.35;11.95;;;5.10;99.90;;;;;;5074004;28;20032;-72
2021/04/09 02:14:13;;;;;;;19.25;11.82;;;5.10;99.90;;;;;;5073743;28;20024;-73
2021/04/09 02:16:39;;;;;;;;;;;5.10;99.90;;;;;;5074157;28;20411;-72
2021/04/09 02:19:06;;;;;;;16.58;11.45;;;5.10;99.90;;;;;;5073356;28;19905;-72
2021/04/09 02:21:33;;;;;;;18.23;11.57;;;5.10;99.90;;;;;;5073567;28;20074;-72
2021/04/09 02:24:00;;;;;;;18.90;11.55;;;5.20;99.90;;;;;;5072728;28;20024;-72
2021/04/09 02:26:27;;;;;;;14.80;11.23;;;5.10;99.90;;;;;;5073162;28;20080;-72
2021/04/09 02:28:53;;;;;;;18.38;10.35;;;5.10;99.90;;;;;;5073686;28;20075;-73
2021/04/09 02:31:19;;;;;;;25.23;12.18;;;5.10;99.90;;;;;;5072337;28;20383;-72
2021/04/09 02:33:44;;;;;;;16.98;12.18;;;5.10;99.90;;;;;;5073106;28;20560;-72
2021/04/09 02:36:13;;;;;;;17.00;11.02;;;5.10;99.90;;;;;;5073021;28;20112;-71
2021/04/09 02:38:40;;;;;;;14.93;11.07;;;5.20;99.90;;;;;;5072526;28;20024;-72
2021/04/09 02:41:07;;;;;;;17.65;10.68;;;5.10;99.90;;;;;;5072752;28;20017;-72
2021/04/09 02:43:33;;;;;;;15.98;10.57;;;5.20;99.90;;;;;;5072307;28;20036;-72
2021/04/09 02:46:04;;;;;;;16.55;10.95;;;5.20;99.90;;;;;;5073206;28;20025;-71
2021/04/09 02:48:33;;;;;;;;;;;5.20;99.90;;;;;;5073377;28;20033;-72
2021/04/09 02:51:07;;;;;;;21.10;11.68;;;5.30;99.90;;;;;;5072095;28;19905;-72
2021/04/09 02:53:37;;;;;;;14.05;9.75;;;5.30;99.90;;;;;;5073035;28;20494;-71
2021/04/09 02:56:04;;;;;;;20.70;11.43;;;5.30;99.90;;;;;;5063993;28;20491;-71
2021/04/09 02:58:32;;;;;;;17.10;9.82;;;5.40;99.90;;;;;;5066178;28;20032;-72
2021/04/09 03:00:59;;;;;;;15.38;9.98;;;5.40;99.90;;;;;;5073032;28;20033;-72
2021/04/09 03:03:26;;;;;;;19.83;10.85;;;5.50;99.90;;;;;;5072431;28;20422;-73
2021/04/09 03:05:53;;;;;;;20.27;10.75;;;5.50;99.90;;;;;;5071709;28;20048;-73
2021/04/09 03:08:20;;;;;;;18.40;10.32;;;5.60;99.90;;;;;;5072219;28;20036;-72
2021/04/09 03:10:47;;;;;;;17.25;10.40;;;5.60;99.90;;;;;;5067817;28;20053;-71
2021/04/09 03:13:13;;;;;;;17.63;9.98;;;5.60;99.90;;;;;;5053395;28;20029;-72
2021/04/09 03:15:56;;;;;;;13.25;10.18;;;5.70;99.90;;;;;;5063628;28;20427;-72
2021/04/09 03:18:24;;;;;;;19.38;10.55;;;5.70;99.90;;;;;;5053898;28;20027;-72
2021/04/09 03:20:50;;;;;;;16.58;10.18;;;5.70;99.90;;;;;;5051766;28;20036;-72
2021/04/09 03:23:15;;;;;;;23.48;10.57;;;5.70;99.90;;;;;;5069608;28;20017;-72
2021/04/09 03:25:41;;;;;;;15.57;10.52;;;5.80;99.90;;;;;;5052696;28;20044;-73
2021/04/09 03:28:07;;;;;;;13.88;10.13;;;5.70;99.90;;;;;;5066521;28;20037;-71
2021/04/09 03:30:33;;;;;;;13.57;9.60;;;5.70;99.90;;;;;;5070819;28;20099;-71
2021/04/09 03:32:59;;;;;;;13.25;9.68;;;5.80;99.90;;;;;;5071140;28;20037;-71
2021/04/09 03:35:25;;;;;;;18.75;9.38;;;5.70;99.90;;;;;;5058855;28;20017;-71
2021/04/09 03:37:50;;;;;;;15.23;10.50;;;5.80;99.90;;;;;;5063399;28;20059;-72
2021/04/09 03:40:17;;;;;;;13.75;9.48;;;5.70;99.90;;;;;;5070532;28;20107;-71
2021/04/09 03:42:42;;;;;;;15.27;10.25;;;5.70;99.90;;;;;;5061683;28;20021;-72
2021/04/09 03:45:09;;;;;;;13.55;9.73;;;5.70;99.90;;;;;;5066707;28;20349;-72
2021/04/09 03:47:34;;;;;;;17.27;10.13;;;5.70;99.90;;;;;;5070760;28;20032;-72
2021/04/09 03:50:01;;;;;;;13.85;9.88;;;5.80;99.90;;;;;;5071420;28;20112;-71
2021/04/09 03:52:27;;;;;;;16.60;9.85;;;5.80;99.90;;;;;;5070832;28;20579;-72
2021/04/09 03:54:53;;;;;;;19.25;10.20;;;5.70;99.90;;;;;;5070411;28;20472;-72
2021/04/09 03:57:18;;;;;;;17.65;10.18;;;5.80;99.90;;;;;;5070538;28;20031;-72
2021/04/09 03:59:44;;;;;;;19.60;10.23;;;5.80;99.90;;;;;;5071962;28;20423;-72
2021/04/09 04:02:10;;;;;;;15.07;10.27;;;5.80;99.90;;;;;;5070676;28;20697;-72
2021/04/09 04:04:35;;;;;;;17.65;11.00;;;5.80;99.90;;;;;;5071829;28;20046;-72
2021/04/09 04:07:01;;;;;;;17.65;10.95;;;5.70;99.90;;;;;;5057534;28;20184;-72
2021/04/09 04:09:26;;;;;;;16.08;10.40;;;5.70;99.90;;;;;;5070940;28;20021;-72
2021/04/09 04:11:52;;;;;;;17.13;10.50;;;5.70;99.90;;;;;;5071804;28;20468;-72
2021/04/09 04:14:17;;;;;;;15.75;10.48;;;5.70;99.90;;;;;;5071554;28;20031;-71
2021/04/09 04:16:43;;;;;;;17.95;10.65;;;5.70;99.90;;;;;;5071379;28;20020;-72
2021/04/09 04:19:09;;;;;;;17.20;11.27;;;5.60;99.90;;;;;;5071333;28;20063;-72
2021/04/09 04:21:34;;;;;;;19.42;10.77;;;5.70;99.90;;;;;;5071610;28;20108;-72
2021/04/09 04:24:00;;;;;;;19.83;10.07;;;5.70;99.90;;;;;;5071905;28;20025;-72
2021/04/09 04:26:26;;;;;;;18.30;10.90;;;5.70;99.90;;;;;;5075516;28;20472;-72
2021/04/09 04:28:51;;;;;;;15.43;11.18;;;5.60;99.90;;;;;;5075746;28;20463;-72
2021/04/09 04:31:17;;;;;;;14.73;10.52;;;5.60;99.90;;;;;;5074738;28;20028;-72
2021/04/09 04:33:43;;;;;;;15.27;9.55;;;5.60;99.90;;;;;;5075061;28;20024;-72
2021/04/09 04:36:09;;;;;;;16.95;10.57;;;5.50;99.90;;;;;;5074797;28;20035;-71
2021/04/09 04:38:34;;;;;;;15.27;10.40;;;5.50;99.90;;;;;;5075346;28;20023;-72
2021/04/09 04:41:00;;;;;;;16.60;11.63;;;5.40;99.90;;;;;;5075269;28;20476;-72
2021/04/09 04:43:26;;;;;;;15.65;10.68;;;5.40;99.90;;;;;;5074151;28;20165;-71
2021/04/09 04:45:52;;;;;;;19.52;10.77;;;5.40;99.90;;;;;;5075272;28;20029;-71
2021/04/09 04:48:17;;;;;;;18.63;11.05;;;5.40;99.90;;;;;;5074582;28;20040;-72
2021/04/09 04:50:43;;;;;;;16.10;11.07;;;5.40;99.90;;;;;;5074030;28;20025;-72
2021/04/09 04:53:08;;;;;;;20.00;11.25;;;5.30;99.90;;;;;;5074956;28;20098;-72
2021/04/09 04:55:34;;;;;;;13.68;10.93;;;5.40;99.90;;;;;;5075002;28;20009;-72
2021/04/09 04:58:00;;;;;;;16.58;11.15;;;5.30;99.90;;;;;;5064638;28;20021;-72
2021/04/09 05:00:26;;;;;;;13.85;10.25;;;5.30;99.90;;;;;;5070174;28;20099;-73
2021/04/09 05:02:52;;;;;;;18.45;10.73;;;5.30;99.90;;;;;;5074525;28;20021;-72
2021/04/09 05:05:18;;;;;;;14.65;9.75;;;5.30;99.90;;;;;;5073526;28;20048;-72
2021/04/09 05:07:43;;;;;;;12.05;9.07;;;5.30;99.90;;;;;;5074662;28;20028;-72
2021/04/09 05:10:10;;;;;;;16.08;11.55;;;5.30;99.90;;;;;;5074511;28;20055;-73
2021/04/09 05:12:36;;;;;;;14.48;10.27;;;5.30;99.90;;;;;;5073844;28;20030;-72
2021/04/09 05:15:03;;;;;;;17.58;9.80;;;5.30;99.90;;;;;;5074931;28;20033;-72
2021/04/09 05:17:29;;;;;;;15.57;10.13;;;5.20;99.90;;;;;;5074827;28;20384;-72
2021/04/09 05:19:54;;;;;;;15.25;10.68;;;5.30;99.90;;;;;;5073443;28;20477;-72
2021/04/09 05:22:20;;;;;;;20.88;10.45;;;5.30;99.90;;;;;;5074199;28;20128;-72
2021/04/09 05:24:47;;;;;;;16.13;9.95;;;5.30;99.90;;;;;;5074374;28;20023;-72
2021/04/09 05:27:12;;;;;;;20.65;9.38;;;5.30;99.90;;;;;;5073312;28;20090;-72
2021/04/09 05:29:39;;;;;;;15.68;10.18;;;5.30;99.90;;;;;;5074762;28;20024;-72
2021/04/09 05:32:08;;;;;;;12.98;9.73;;;5.40;99.90;;;;;;5059998;28;20029;-72
2021/04/09 05:34:34;;;;;;;16.90;9.85;;;5.40;99.90;;;;;;5060743;28;20100;-72
2021/04/09 05:37:00;;;;;;;15.23;9.43;;;5.40;99.90;;;;;;5071687;28;20021;-72
2021/04/09 05:39:26;;;;;;;15.10;9.27;;;5.40;99.90;;;;;;5072963;28;20472;-72
2021/04/09 05:41:51;;;;;;;15.00;9.48;;;5.40;99.90;;;;;;5072665;28;20037;-72
2021/04/09 05:44:17;;;;;;;17.92;9.77;;;5.50;99.90;;;;;;5070130;28;20024;-71
2021/04/09 05:46:43;;;;;;;25.02;10.80;;;5.50;99.90;;;;;;5071852;28;20044;-71
2021/04/09 05:49:09;;;;;;;22.38;10.38;;;5.60;99.90;;;;;;5072501;28;20038;-71
2021/04/09 05:51:37;;;;;;;16.40;10.77;;;5.60;99.90;;;;;;5072030;28;20060;-72
2021/04/09 05:54:03;;;;;;;15.30;9.52;;;5.60;99.90;;;;;;5070875;28;20086;-71
2021/04/09 05:56:29;;;;;;;13.15;8.88;;;5.70;99.90;;;;;;5071751;28;20020;-72
2021/04/09 05:58:54;;;;;;;20.67;9.25;;;5.70;99.90;;;;;;5073413;28;20024;-73
2021/04/09 06:01:20;;;;;;;14.63;9.40;;;5.70;99.90;;;;;;5073565;28;20024;-71
2021/04/09 06:03:49;;;;;;;16.92;9.63;;;5.70;99.90;;;;;;5072205;28;20136;-72
2021/04/09 06:06:15;;;;;;;14.68;9.68;;;5.80;99.90;;;;;;5072727;28;20396;-73
2021/04/09 06:08:41;;;;;;;15.93;10.73;;;5.80;99.90;;;;;;5072416;28;20020;-72
2021/04/09 06:11:07;;;;;;;19.98;9.88;;;5.90;99.90;;;;;;5072813;28;20380;-73
2021/04/09 06:13:33;;;;;;;12.90;9.10;;;5.90;99.90;;;;;;5073190;28;20055;-72
2021/04/09 06:15:58;;;;;;;12.27;8.93;;;6.00;99.90;;;;;;5070467;28;20094;-71
2021/04/09 06:18:27;;;;;;;13.05;8.90;;;6.00;99.90;;;;;;5069075;28;20059;-72
2021/04/09 06:20:53;;;;;;;9.65;8.23;;;6.10;99.90;;;;;;5061095;28;20108;-72
2021/04/09 06:23:18;;;;;;;14.80;8.32;;;6.10;99.90;;;;;;5059877;28;20095;-71
2021/04/09 06:25:44;;;;;;;13.20;9.48;;;6.20;99.90;;;;;;5058384;28;20159;-72
2021/04/09 06:28:09;;;;;;;13.63;9.43;;;6.20;99.90;;;;;;5057324;28;20148;-72
2021/04/09 06:30:35;;;;;;;19.20;9.65;;;6.30;99.90;;;;;;5065032;28;20009;-72
2021/04/09 06:33:01;;;;;;;10.60;8.75;;;6.30;99.90;;;;;;5056596;28;20090;-72
2021/04/09 06:35:27;;;;;;;17.95;8.27;;;6.40;99.90;;;;;;5055409;28;20287;-73
2021/04/09 06:37:52;;;;;;;13.63;8.98;;;6.40;99.90;;;;;;5056923;28;20064;-72
2021/04/09 06:40:19;;;;;;;11.68;8.93;;;6.50;99.90;;;;;;5057899;28;20108;-72
2021/04/09 06:42:45;;;;;;;15.25;9.77;;;6.60;99.90;;;;;;5068977;28;20059;-72
2021/04/09 06:45:12;;;;;;;14.65;9.40;;;6.60;99.90;;;;;;5065292;28;20432;-73
2021/04/09 06:47:38;;;;;;;15.45;8.45;;;6.70;99.90;;;;;;5060400;28;20051;-72
2021/04/09 06:50:05;;;;;;;16.08;9.05;;;6.80;99.90;;;;;;5054906;28;20384;-73
2021/04/09 06:52:31;;;;;;;11.77;8.98;;;6.90;99.90;;;;;;5055202;28;20108;-73
2021/04/09 06:54:59;;;;;;;12.68;8.30;;;7.00;99.90;;;;;;5057410;28;20108;-73
2021/04/09 06:57:27;;;;;;;15.65;8.93;;;7.10;99.90;;;;;;5061101;28;20020;-73
2021/04/09 06:59:57;;;;;;;10.85;7.55;;;7.20;99.90;;;;;;5060361;28;20029;-72
2021/04/09 07:02:22;;;;;;;15.27;8.45;;;7.30;99.90;;;;;;5058947;28;20524;-72
2021/04/09 07:04:48;;;;;;;10.15;7.68;;;7.30;99.90;;;;;;5052362;28;20104;-72
2021/04/09 07:07:16;;;;;;;14.45;8.40;;;7.40;99.90;;;;;;5056875;28;20481;-73
2021/04/09 07:09:43;;;;;;;15.40;8.18;;;7.40;99.90;;;;;;5056159;28;20459;-72
2021/04/09 07:12:29;;;;;;;22.42;9.45;;;7.40;99.90;;;;;;5057505;28;20047;-73
2021/04/09 07:14:56;;;;;;;17.85;6.90;;;7.50;99.90;;;;;;5072354;28;20032;-73
2021/04/09 07:17:26;;;;;;;14.85;8.45;;;7.50;99.90;;;;;;5072067;28;20020;-74
2021/04/09 07:20:05;;;;;;;11.45;7.38;;;7.50;99.90;;;;;;5071534;28;20027;-73
2021/04/09 07:22:31;;;;;;;19.95;8.02;;;7.60;99.90;;;;;;5072272;28;20067;-74
2021/04/09 07:25:10;;;;;;;13.25;8.25;;;7.60;99.90;;;;;;5071738;28;20033;-73
2021/04/09 07:27:37;;;;;;;13.07;8.55;;;7.70;99.90;;;;;;5063880;28;20025;-74
2021/04/09 07:30:05;;;;;;;15.48;8.00;;;7.70;99.90;;;;;;5062218;28;20025;-73
2021/04/09 07:32:32;;;;;;;16.10;8.02;;;7.80;99.90;;;;;;5071497;28;20078;-76
2021/04/09 07:35:05;;;;;;;13.20;8.15;;;7.80;99.90;;;;;;5072220;28;20044;-75
2021/04/09 07:37:33;;;;;;;10.25;8.00;;;7.80;99.90;;;;;;5072107;28;20369;-76
2021/04/09 07:40:00;;;;;;;10.52;7.20;;;7.90;99.90;;;;;;5071427;28;20345;-76
2021/04/09 07:42:36;;;;;;;10.32;7.72;;;7.80;99.90;;;;;;5071978;28;20036;-76
2021/04/09 07:45:09;;;;;;;10.65;7.72;;;7.90;99.90;;;;;;5068550;28;20078;-77
2021/04/09 07:47:36;;;;;;;11.15;8.35;;;7.80;99.90;;;;;;5071067;28;20033;-81
2021/04/09 07:50:07;;;;;;;11.98;7.88;;;7.80;99.90;;;;;;5067685;28;20070;-77
2021/04/09 07:52:43;;;;;;;12.95;7.70;;;7.80;99.90;;;;;;5071971;28;20025;-78
2021/04/09 07:55:21;;;;;;;13.15;7.43;;;7.80;99.90;;;;;;5070911;28;20024;-76
2021/04/09 07:57:47;;;;;;;8.85;7.35;;;7.90;99.90;;;;;;5072351;28;20078;-75
2021/04/09 08:00:26;;;;;;;14.13;7.95;;;8.00;99.90;;;;;;5058696;28;20017;-76
2021/04/09 08:02:54;;;;;;;11.93;8.40;;;8.00;99.90;;;;;;5064784;28;20480;-76
2021/04/09 08:05:24;;;;;;;12.48;8.07;;;8.00;99.90;;;;;;5071158;28;20040;-75
2021/04/09 08:07:49;;;;;;;12.45;7.75;;;8.00;99.90;;;;;;5070885;28;20037;-76
2021/04/09 08:10:17;;;;;;;14.63;8.20;;;8.00;99.90;;;;;;5071001;28;20047;-76
2021/04/09 08:12:49;;;;;;;13.77;7.35;;;8.10;99.90;;;;;;5061048;28;20029;-75
2021/04/09 08:15:18;;;;;;;10.05;7.63;;;8.10;99.90;;;;;;5067948;28;20091;-75
2021/04/09 08:17:59;;;;;;;12.80;7.90;;;8.20;99.90;;;;;;5070904;28;20021;-74
2021/04/09 08:20:25;;;;;;;9.55;7.72;;;8.20;99.90;;;;;;5070816;28;20021;-75
2021/04/09 08:22:52;;;;;;;11.13;7.03;;;8.30;99.90;;;;;;5070621;28;20104;-75
2021/04/09 08:25:18;;;;;;;12.82;7.85;;;8.30;99.90;;;;;;5057807;28;20054;-76
2021/04/09 08:27:44;;;;;;;12.48;8.57;;;8.30;99.90;;;;;;5068103;28;20546;-76
2021/04/09 08:30:11;;;;;;;14.52;8.20;;;8.30;99.90;;;;;;5068336;28;20069;-75
2021/04/09 08:32:37;;;;;;;13.75;7.55;;;8.40;99.90;;;;;;5071081;28;20033;-75
2021/04/09 08:35:05;;;;;;;13.40;8.18;;;8.50;99.90;;;;;;5071985;28;20372;-74
2021/04/09 08:37:31;;;;;;;12.15;7.68;;;8.50;99.90;;;;;;5070268;28;20020;-75
2021/04/09 08:39:57;;;;;;;13.23;7.65;;;8.60;99.90;;;;;;5065883;28;20035;-75
2021/04/09 08:42:23;;;;;;;19.58;8.45;;;8.60;99.90;;;;;;5052603;28;20115;-75
2021/04/09 08:44:48;;;;;;;17.75;8.55;;;8.70;99.90;;;;;;5071383;28;20021;-76
2021/04/09 08:47:19;;;;;;;12.90;7.82;;;8.70;99.90;;;;;;5070847;28;20074;-77
2021/04/09 08:49:45;;;;;;;;;;;8.80;99.90;;;;;;5069646;28;20495;-77
2021/04/09 08:52:14;;;;;;;12.77;8.80;;;8.90;99.90;;;;;;5066189;28;19904;-77
2021/04/09 08:55:00;;;;;;;17.02;9.95;;;9.00;99.90;;;;;;5050769;28;20036;-78
2021/04/09 08:57:33;;;;;;;13.63;7.75;;;9.10;99.90;;;;;;5050176;28;20393;-80
2021/04/09 09:00:19;;;;;;;13.30;7.90;;;9.20;99.90;;;;;;5065955;28;20465;-79
2021/04/09 09:02:53;;;;;;;10.32;7.22;;;9.30;99.90;;;;;;5060628;28;20048;-78
2021/04/09 09:05:35;;;;;;;12.75;8.13;;;9.30;99.90;;;;;;5070413;28;20048;-79
2021/04/09 09:08:02;;;;;;;12.98;7.75;;;9.30;99.90;;;;;;5053485;28;20029;-79
2021/04/09 09:10:30;;;;;;;13.85;8.38;;;9.40;99.90;;;;;;5056715;28;20029;-78
2021/04/09 09:13:04;;;;;;;13.68;8.05;;;9.40;99.90;;;;;;5074132;28;20150;-76
2021/04/09 09:15:42;;;;;;;11.32;7.82;;;9.50;99.90;;;;;;5074931;28;20016;-77
2021/04/09 09:18:27;;;;;;;15.20;7.88;;;9.60;99.90;;;;;;5065740;28;20047;-76
2021/04/09 09:21:05;;;;;;;11.82;7.07;;;9.60;99.90;;;;;;5075371;28;20032;-75
2021/04/09 09:23:42;;;;;;;19.10;7.40;;;9.70;99.90;;;;;;5073818;28;20054;-76
2021/04/09 09:26:32;;;;;;;13.88;6.78;;;9.80;99.90;;;;;;5073345;28;20500;-76
2021/04/09 09:29:19;;;;;;;17.48;7.25;;;9.90;99.90;;;;;;5073098;28;20078;-77
2021/04/09 09:32:01;;;;;;;13.57;7.45;;;9.90;99.90;;;;;;5068242;28;20021;-76
2021/04/09 09:34:27;;;;;;;11.10;7.95;;;9.90;99.90;;;;;;5073651;28;20028;-77
2021/04/09 09:37:01;;;;;;;12.80;7.13;;;10.00;99.90;;;;;;5074669;28;20033;-77
2021/04/09 09:39:53;;;;;;;13.13;8.05;;;10.00;99.90;;;;;;5073523;28;20481;-76
2021/04/09 09:42:28;;;;;;;13.45;7.95;;;10.10;99.90;;;;;;5064497;28;20381;-76
2021/04/09 09:45:12;;;;;;;11.30;8.27;;;10.20;99.90;;;;;;5060693;28;20548;-76
2021/04/09 09:47:44;;;;;;;13.15;8.27;;;10.30;99.90;;;;;;5059850;28;20032;-76
2021/04/09 09:50:27;;;;;;;13.43;8.25;;;10.40;99.90;;;;;;5059175;28;20036;-76
2021/04/09 09:52:58;;;;;;;10.20;8.07;;;10.40;99.90;;;;;;5063328;28;20040;-76
2021/04/09 09:55:30;;;;;;;;;;;10.70;99.90;;;;;;5061055;28;20020;-77
2021/04/09 09:58:09;;;;;;;9.50;6.90;;;10.80;99.90;;;;;;5058181;28;19909;-75
2021/04/09 10:00:38;;;;;;;10.03;6.83;;;11.00;99.90;;;;;;5058588;28;20123;-75
2021/04/09 10:03:21;;;;;;;9.82;7.00;;;11.30;99.90;;;;;;5060569;28;20095;-74
2021/04/09 10:05:48;;;;;;;9.20;7.45;;;11.40;99.90;;;;;;5058881;28;20055;-76
2021/04/09 10:08:14;;;;;;;14.30;7.45;;;11.40;99.90;;;;;;5063752;28;20068;-75
2021/04/09 10:10:42;;;;;;;11.55;8.27;;;11.40;99.90;;;;;;5073906;28;20021;-75
2021/04/09 10:13:18;;;;;;;11.25;6.57;;;11.60;99.90;;;;;;5073733;28;20107;-76
2021/04/09 10:15:44;;;;;;;7.72;5.88;;;11.80;99.90;;;;;;5078967;28;20032;-77
2021/04/09 10:18:10;;;;;;;9.18;5.90;;;11.90;99.90;;;;;;5075509;28;20019;-76
2021/04/09 10:20:37;;;;;;;7.32;5.97;;;11.90;99.90;;;;;;5064207;28;20020;-75
2021/04/09 10:23:03;;;;;;;8.88;6.00;;;11.80;99.90;;;;;;5071627;28;20126;-76
2021/04/09 10:25:30;;;;;;;11.80;7.32;;;11.80;99.90;;;;;;5074019;28;20020;-76
2021/04/09 10:27:56;;;;;;;11.23;6.43;;;11.70;99.90;;;;;;5060891;28;20032;-77
2021/04/09 10:30:30;;;;;;;10.35;5.93;;;11.80;99.90;;;;;;5063195;28;20048;-77
2021/04/09 10:32:56;;;;;;;11.02;6.30;;;11.80;99.90;;;;;;5070752;28;20024;-76
2021/04/09 10:35:28;;;;;;;10.15;5.60;;;11.80;99.90;;;;;;5071170;28;20021;-77
2021/04/09 10:38:14;;;;;;;8.05;5.38;;;11.90;99.90;;;;;;5066565;28;20123;-77
2021/04/09 10:40:56;;;;;;;6.55;5.55;;;12.00;99.90;;;;;;5065646;28;20057;-77
2021/04/09 10:43:52;;;;;;;10.38;6.22;;;12.10;99.90;;;;;;5063117;28;20266;-78
2021/04/09 10:46:18;;;;;;;6.35;5.00;;;12.30;99.90;;;;;;5063366;28;20060;-76
2021/04/09 10:48:44;;;;;;;11.63;5.43;;;12.30;99.90;;;;;;5071578;28;20123;-76
2021/04/09 10:51:13;;;;;;;9.82;5.72;;;12.20;99.90;;;;;;5070697;28;20104;-77
2021/04/09 10:53:40;;;;;;;10.95;5.72;;;12.10;99.90;;;;;;5071762;28;20111;-76
2021/04/09 10:56:08;;;;;;;7.43;5.75;;;12.20;99.90;;;;;;5070682;28;20025;-74
2021/04/09 10:58:35;;;;;;;8.93;5.25;;;12.20;99.90;;;;;;5071941;28;20074;-76
2021/04/09 11:01:01;;;;;;;10.18;6.15;;;12.40;99.90;;;;;;5071880;28;20022;-76
2021/04/09 11:03:29;;;;;;;14.43;6.35;;;12.40;99.90;;;;;;5070420;28;20071;-76
2021/04/09 11:05:55;;;;;;;9.98;5.10;;;12.50;99.90;;;;;;5070312;28;20048;-77
2021/04/09 11:08:31;;;;;;;6.63;5.13;;;12.60;99.90;;;;;;5069867;28;20035;-77
2021/04/09 11:11:06;;;;;;;8.57;5.57;;;12.50;99.90;;;;;;5069651;28;20062;-76
2021/04/09 11:13:33;;;;;;;12.38;5.60;;;12.60;99.90;;;;;;5070974;28;20024;-76
2021/04/09 11:15:59;;;;;;;8.07;5.30;;;12.50;99.90;;;;;;5070276;28;20023;-76
2021/04/09 11:18:58;;;;;;;6.55;4.63;;;12.40;99.90;;;;;;5069317;28;20016;-77
2021/04/09 11:21:44;;;;;;;5.47;4.97;;;12.30;99.90;;;;;;5036754;28;20032;-77
2021/04/09 11:24:12;;;;;;;8.35;4.80;;;12.20;99.90;;;;;;5071600;28;20025;-76
2021/04/09 11:26:38;;;;;;;4.10;3.22;;;12.10;99.90;;;;;;5072377;28;20040;-75
2021/04/09 11:29:03;;;;;;;6.93;3.70;;;11.90;99.90;;;;;;5072223;28;20063;-76
2021/04/09 11:31:29;;;;;;;5.13;3.50;;;11.80;99.90;;;;;;5071582;28;20473;-75
2021/04/09 11:34:09;;;;;;;7.50;3.97;;;11.70;99.90;;;;;;5071897;28;20354;-79
2021/04/09 11:36:42;;;;;;;9.38;3.35;;;11.60;99.90;;;;;;5072807;28;20462;-81
2021/04/09 11:39:18;;;;;;;7.03;3.60;;;11.50;99.90;;;;;;5057394;28;20086;-78
2021/04/09 11:41:46;;;;;;;6.38;3.17;;;11.50;99.90;;;;;;5072367;28;20043;-76
2021/04/09 11:44:32;;;;;;;5.80;3.20;;;11.50;99.90;;;;;;5058005;28;20029;-78
2021/04/09 11:47:33;;;;;;;6.10;3.38;;;11.50;99.90;;;;;;5071614;28;20470;-77
2021/04/09 11:50:20;;;;;;;6.78;4.97;;;11.50;99.90;;;;;;5029889;28;20048;-78
2021/04/09 11:53:05;;;;;;;7.22;3.92;;;11.50;99.90;;;;;;5071301;28;20439;-80
2021/04/09 11:55:36;;;;;;;10.10;4.20;;;11.60;99.90;;;;;;5067358;28;20016;-78
2021/04/09 11:58:03;;;;;;;7.32;3.53;;;11.70;99.90;;;;;;5071752;28;20380;-78
2021/04/09 12:00:33;;;;;;;6.70;3.60;;;11.70;99.90;;;;;;5071240;28;20024;-78
2021/04/09 12:03:04;;;;;;;5.30;3.75;;;11.80;99.90;;;;;;5071731;28;20041;-77
2021/04/09 12:05:32;;;;;;;12.73;4.53;;;12.00;99.90;;;;;;5059401;28;20480;-78
2021/04/09 12:07:58;;;;;;;6.30;4.18;;;12.20;99.90;;;;;;5059810;28;20037;-77
2021/04/09 12:10:26;;;;;;;9.07;4.32;;;12.30;99.90;;;;;;5071601;28;20391;-76
2021/04/09 12:12:52;;;;;;;5.15;3.53;;;12.40;99.90;;;;;;5071570;28;20023;-76
2021/04/09 12:15:21;;;;;;;4.30;3.60;;;12.40;99.90;;;;;;5070875;28;20021;-76
2021/04/09 12:17:47;;;;;;;4.20;3.42;;;12.50;99.90;;;;;;5071799;28;20024;-76
2021/04/09 12:20:16;;;;;;;7.18;3.60;;;12.70;99.90;;;;;;5072193;28;20012;-76
2021/04/09 12:22:42;;;;;;;5.28;3.72;;;12.80;99.90;;;;;;5053815;28;20029;-76
2021/04/09 12:25:09;;;;;;;6.43;2.85;;;13.10;99.90;;;;;;5057521;28;20020;-76
2021/04/09 12:27:39;;;;;;;4.78;2.65;;;13.20;99.90;;;;;;5070963;28;20432;-75
2021/04/09 12:30:11;;;;;;;4.95;2.72;;;13.20;99.10;;;;;;5071115;28;20059;-75
2021/04/09 12:32:37;;;;;;;6.50;2.83;;;13.50;98.80;;;;;;5071987;28;20056;-76
2021/04/09 12:35:03;;;;;;;4.60;3.20;;;13.50;97.80;;;;;;5056831;28;20478;-75
2021/04/09 12:37:29;;;;;;;8.50;3.70;;;13.70;99.30;;;;;;5071641;28;20020;-76
2021/04/09 12:39:55;;;;;;;6.47;3.13;;;13.90;99.30;;;;;;5071036;28;20121;-76
2021/04/09 12:42:21;;;;;;;7.13;3.47;;;14.00;99.50;;;;;;5057093;28;20017;-76
2021/04/09 12:44:46;;;;;;;5.95;3.22;;;13.90;99.90;;;;;;5071376;28;20419;-76
2021/04/09 12:47:12;;;;;;;5.20;3.28;;;13.90;98.90;;;;;;5074140;28;20024;-76
2021/04/09 12:49:38;;;;;;;5.45;3.20;;;13.80;98.60;;;;;;5068303;28;20032;-77
2021/04/09 12:52:05;;;;;;;8.40;3.17;;;13.80;99.10;;;;;;5074858;28;20016;-76
2021/04/09 12:54:31;;;;;;;6.95;3.05;;;13.90;99.10;;;;;;5075067;28;20075;-77